sensor_id;sensor_type;location;lat;lon;timestamp;temperature;humidity
19947;DHT22;10135;50.702;7.276;2023-04-03T05:00:44;5.80;59.90
19947;DHT22;10135;50.702;7.276;2023-04-03T05:02:44;5.80;60.10
19947;DHT22;10135;50.702;7.276;2023-04-03T05:04:45;5.70;60.00
19947;DHT22;10135;50.702;7.276;2023-04-03T05:06:46;5.70;60.00
19947;DHT22;10135;50.702;7.276;2023-04-03T05:08:46;5.70;60.00
19947;DHT22;10135;50.702;7.276;2023-04-03T05:10:47;5.70;60.10
19947;DHT22;10135;50.702;7.276;2023-04-03T05:12:48;5.70;60.10
19947;DHT22;10135;50.702;7.276;2023-04-03T05:14:49;5.60;60.00
19947;DHT22;10135;50.702;7.276;2023-04-03T05:16:50;5.60;60.10
19947;DHT22;10135;50.702;7.276;2023-04-03T05:18:54;5.60;60.00
19947;DHT22;10135;50.702;7.276;2023-04-03T05:20:54;5.60;60.10
19947;DHT22;10135;50.702;7.276;2023-04-03T05:22:55;5.60;60.20
19947;DHT22;10135;50.702;7.276;2023-04-03T05:24:55;5.60;60.10
19947;DHT22;10135;50.702;7.276;2023-04-03T05:26:56;5.60;60.10
19947;DHT22;10135;50.702;7.276;2023-04-03T05:28:57;5.60;60.20
19947;DHT22;10135;50.702;7.276;2023-04-03T05:30:58;5.70;60.20
19947;DHT22;10135;50.702;7.276;2023-04-03T05:32:59;5.70;60.20
19947;DHT22;10135;50.702;7.276;2023-04-03T05:35:00;5.70;60.30
19947;DHT22;10135;50.702;7.276;2023-04-03T05:37:01;5.70;60.20
19947;DHT22;10135;50.702;7.276;2023-04-03T05:39:03;5.70;60.20
19947;DHT22;10135;50.702;7.276;2023-04-03T05:41:04;5.70;60.20
19947;DHT22;10135;50.702;7.276;2023-04-03T05:43:05;5.70;60.20
19947;DHT22;10135;50.702;7.276;2023-04-03T05:45:06;5.80;60.30
19947;DHT22;10135;50.702;7.276;2023-04-03T05:47:07;5.80;60.30
19947;DHT22;10135;50.702;7.276;2023-04-03T05:49:07;5.80;60.30
19947;DHT22;10135;50.702;7.276;2023-04-03T05:51:17;5.90;60.30
19947;DHT22;10135;50.702;7.276;2023-04-03T05:53:26;5.90;60.10
19947;DHT22;10135;50.702;7.276;2023-04-03T05:55:28;5.90;60.20
19947;DHT22;10135;50.702;7.276;2023-04-03T05:57:29;5.90;60.20
19947;DHT22;10135;50.702;7.276;2023-04-03T05:59:30;6.00;60.30
19947;DHT22;10135;50.702;7.276;2023-04-03T06:01:30;6.00;60.30
19947;DHT22;10135;50.702;7.276;2023-04-03T06:03:31;6.10;60.40
19947;DHT22;10135;50.702;7.276;2023-04-03T06:05:32;6.20;60.60
19947;DHT22;10135;50.702;7.276;2023-04-03T06:07:33;6.30;61.00
19947;DHT22;10135;50.702;7.276;2023-04-03T06:09:33;6.50;61.50
19947;DHT22;10135;50.702;7.276;2023-04-03T06:11:34;6.80;62.20
19947;DHT22;10135;50.702;7.276;2023-04-03T06:13:35;7.20;62.80
19947;DHT22;10135;50.702;7.276;2023-04-03T06:15:36;7.70;63.50
19947;DHT22;10135;50.702;7.276;2023-04-03T06:17:38;8.30;64.10
19947;DHT22;10135;50.702;7.276;2023-04-03T06:19:39;9.00;64.60
19947;DHT22;10135;50.702;7.276;2023-04-03T06:21:40;9.80;64.50
19947;DHT22;10135;50.702;7.276;2023-04-03T06:23:40;10.50;64.10
19947;DHT22;10135;50.702;7.276;2023-04-03T06:25:42;11.20;63.60
19947;DHT22;10135;50.702;7.276;2023-04-03T06:27:43;11.90;63.20
19947;DHT22;10135;50.702;7.276;2023-04-03T06:29:43;12.60;62.60
19947;DHT22;10135;50.702;7.276;2023-04-03T06:31:46;13.10;61.90
19947;DHT22;10135;50.702;7.276;2023-04-03T06:33:46;13.70;61.10
19947;DHT22;10135;50.702;7.276;2023-04-03T06:35:47;14.20;60.30
19947;DHT22;10135;50.702;7.276;2023-04-03T06:37:48;14.60;59.50
19947;DHT22;10135;50.702;7.276;2023-04-03T06:39:49;14.90;59.00
19947;DHT22;10135;50.702;7.276;2023-04-03T06:41:50;15.30;58.50
19947;DHT22;10135;50.702;7.276;2023-04-03T06:43:51;15.60;58.20
19947;DHT22;10135;50.702;7.276;2023-04-03T06:45:52;15.90;58.10
19947;DHT22;10135;50.702;7.276;2023-04-03T06:47:53;16.20;57.50
19947;DHT22;10135;50.702;7.276;2023-04-03T06:49:53;16.40;57.50
19947;DHT22;10135;50.702;7.276;2023-04-03T06:51:55;16.50;56.40
19947;DHT22;10135;50.702;7.276;2023-04-03T06:53:58;16.60;56.00
19947;DHT22;10135;50.702;7.276;2023-04-03T06:55:59;16.60;55.50
19947;DHT22;10135;50.702;7.276;2023-04-03T06:58:00;16.70;55.40
19947;DHT22;10135;50.702;7.276;2023-04-03T07:00:02;16.70;55.00
19947;DHT22;10135;50.702;7.276;2023-04-03T07:02:04;16.60;54.60
19947;DHT22;10135;50.702;7.276;2023-04-03T07:04:05;16.50;54.50
19947;DHT22;10135;50.702;7.276;2023-04-03T07:06:07;16.40;54.00
19947;DHT22;10135;50.702;7.276;2023-04-03T07:08:11;16.10;53.50
19947;DHT22;10135;50.702;7.276;2023-04-03T07:10:11;15.90;53.50
19947;DHT22;10135;50.702;7.276;2023-04-03T07:12:12;15.60;53.70
19947;DHT22;10135;50.702;7.276;2023-04-03T07:14:13;15.30;53.50
19947;DHT22;10135;50.702;7.276;2023-04-03T07:16:14;15.10;53.60
19947;DHT22;10135;50.702;7.276;2023-04-03T07:18:14;15.00;54.00
19947;DHT22;10135;50.702;7.276;2023-04-03T07:20:15;14.90;54.40
19947;DHT22;10135;50.702;7.276;2023-04-03T07:22:16;14.90;54.40
19947;DHT22;10135;50.702;7.276;2023-04-03T07:24:17;14.90;54.50
19947;DHT22;10135;50.702;7.276;2023-04-03T07:26:17;15.00;54.80
19947;DHT22;10135;50.702;7.276;2023-04-03T07:28:19;15.10;55.00
19947;DHT22;10135;50.702;7.276;2023-04-03T07:30:20;15.20;54.80
19947;DHT22;10135;50.702;7.276;2023-04-03T07:32:21;15.20;54.20
19947;DHT22;10135;50.702;7.276;2023-04-03T07:34:22;15.10;53.70
19947;DHT22;10135;50.702;7.276;2023-04-03T07:36:23;15.00;53.40
19947;DHT22;10135;50.702;7.276;2023-04-03T07:38:24;14.90;53.30
19947;DHT22;10135;50.702;7.276;2023-04-03T07:40:25;14.80;53.50
19947;DHT22;10135;50.702;7.276;2023-04-03T07:42:26;14.70;53.50
19947;DHT22;10135;50.702;7.276;2023-04-03T07:44:28;14.60;53.30
19947;DHT22;10135;50.702;7.276;2023-04-03T07:46:29;14.50;53.30
19947;DHT22;10135;50.702;7.276;2023-04-03T07:48:29;14.40;53.30
19947;DHT22;10135;50.702;7.276;2023-04-03T07:50:30;14.40;53.30
19947;DHT22;10135;50.702;7.276;2023-04-03T07:52:32;14.20;53.20
19947;DHT22;10135;50.702;7.276;2023-04-03T07:54:33;14.20;53.10
19947;DHT22;10135;50.702;7.276;2023-04-03T07:56:34;14.00;53.10
19947;DHT22;10135;50.702;7.276;2023-04-03T07:58:35;13.90;53.00
19947;DHT22;10135;50.702;7.276;2023-04-03T08:00:36;13.80;53.00
19947;DHT22;10135;50.702;7.276;2023-04-03T08:02:38;13.80;53.40
19947;DHT22;10135;50.702;7.276;2023-04-03T08:04:38;13.80;53.50
19947;DHT22;10135;50.702;7.276;2023-04-03T08:06:40;13.80;53.50
19947;DHT22;10135;50.702;7.276;2023-04-03T08:08:40;13.90;53.50
19947;DHT22;10135;50.702;7.276;2023-04-03T08:10:41;14.00;53.80
19947;DHT22;10135;50.702;7.276;2023-04-03T08:12:46;14.10;53.90
19947;DHT22;10135;50.702;7.276;2023-04-03T08:14:47;14.20;53.50
19947;DHT22;10135;50.702;7.276;2023-04-03T08:16:48;14.30;53.60
19947;DHT22;10135;50.702;7.276;2023-04-03T08:18:49;14.40;53.00
19947;DHT22;10135;50.702;7.276;2023-04-03T08:20:51;14.30;52.70
19947;DHT22;10135;50.702;7.276;2023-04-03T08:22:52;14.20;52.30
19947;DHT22;10135;50.702;7.276;2023-04-03T08:24:53;14.10;52.50
19947;DHT22;10135;50.702;7.276;2023-04-03T08:26:53;14.00;52.40
19947;DHT22;10135;50.702;7.276;2023-04-03T08:28:55;13.90;52.10
19947;DHT22;10135;50.702;7.276;2023-04-03T08:30:56;13.80;52.30
19947;DHT22;10135;50.702;7.276;2023-04-03T08:33:03;13.70;52.40
19947;DHT22;10135;50.702;7.276;2023-04-03T08:35:05;13.60;52.20
19947;DHT22;10135;50.702;7.276;2023-04-03T08:37:06;13.40;51.60
19947;DHT22;10135;50.702;7.276;2023-04-03T08:39:07;13.30;52.10
19947;DHT22;10135;50.702;7.276;2023-04-03T08:41:16;13.20;52.40
19947;DHT22;10135;50.702;7.276;2023-04-03T08:43:48;13.30;51.90
19947;DHT22;10135;50.702;7.276;2023-04-03T08:46:01;13.20;51.80
19947;DHT22;10135;50.702;7.276;2023-04-03T08:48:11;13.10;51.70
19947;DHT22;10135;50.702;7.276;2023-04-03T08:50:16;13.00;51.80
19947;DHT22;10135;50.702;7.276;2023-04-03T08:52:35;12.80;51.60
19947;DHT22;10135;50.702;7.276;2023-04-03T08:54:55;12.80;51.40
19947;DHT22;10135;50.702;7.276;2023-04-03T08:56:58;12.80;51.80
19947;DHT22;10135;50.702;7.276;2023-04-03T08:59:06;12.80;52.50
19947;DHT22;10135;50.702;7.276;2023-04-03T09:01:41;12.80;51.90
19947;DHT22;10135;50.702;7.276;2023-04-03T09:03:41;12.80;51.30
19947;DHT22;10135;50.702;7.276;2023-04-03T09:05:47;12.80;52.00
19947;DHT22;10135;50.702;7.276;2023-04-03T09:10:13;12.70;51.50
19947;DHT22;10135;50.702;7.276;2023-04-03T09:12:24;12.60;51.60
19947;DHT22;10135;50.702;7.276;2023-04-03T09:14:32;12.50;50.70
19947;DHT22;10135;50.702;7.276;2023-04-03T09:21:25;12.00;50.70
19947;DHT22;10135;50.702;7.276;2023-04-03T09:23:44;11.70;50.60
19947;DHT22;10135;50.702;7.276;2023-04-03T09:25:49;11.60;50.80
19947;DHT22;10135;50.702;7.276;2023-04-03T09:27:53;11.50;51.20
19947;DHT22;10135;50.702;7.276;2023-04-03T09:29:56;11.40;51.30
19947;DHT22;10135;50.702;7.276;2023-04-03T09:32:00;11.30;51.30
19947;DHT22;10135;50.702;7.276;2023-04-03T09:34:06;11.20;51.10
19947;DHT22;10135;50.702;7.276;2023-04-03T09:36:40;11.10;51.10
19947;DHT22;10135;50.702;7.276;2023-04-03T09:38:45;11.00;50.70
19947;DHT22;10135;50.702;7.276;2023-04-03T09:40:51;11.00;51.80
19947;DHT22;10135;50.702;7.276;2023-04-03T09:43:22;10.90;51.30
19947;DHT22;10135;50.702;7.276;2023-04-03T09:45:34;10.90;50.90
19947;DHT22;10135;50.702;7.276;2023-04-03T09:47:36;10.80;51.70
19947;DHT22;10135;50.702;7.276;2023-04-03T09:49:37;10.80;51.80
19947;DHT22;10135;50.702;7.276;2023-04-03T09:51:38;10.70;51.70
19947;DHT22;10135;50.702;7.276;2023-04-03T09:53:42;10.70;51.60
19947;DHT22;10135;50.702;7.276;2023-04-03T09:55:44;10.70;51.60
19947;DHT22;10135;50.702;7.276;2023-04-03T09:57:46;10.60;51.50
19947;DHT22;10135;50.702;7.276;2023-04-03T10:00:00;10.70;51.70
19947;DHT22;10135;50.702;7.276;2023-04-03T10:02:31;10.70;51.40
19947;DHT22;10135;50.702;7.276;2023-04-03T10:04:40;10.70;51.10
19947;DHT22;10135;50.702;7.276;2023-04-03T10:06:53;10.70;51.90
19947;DHT22;10135;50.702;7.276;2023-04-03T10:09:14;10.70;50.90
19947;DHT22;10135;50.702;7.276;2023-04-03T10:11:21;10.70;50.20
19947;DHT22;10135;50.702;7.276;2023-04-03T10:13:23;10.70;51.00
19947;DHT22;10135;50.702;7.276;2023-04-03T10:15:27;10.60;51.00
19947;DHT22;10135;50.702;7.276;2023-04-03T10:19:54;10.60;50.60
19947;DHT22;10135;50.702;7.276;2023-04-03T10:22:18;10.50;50.80
19947;DHT22;10135;50.702;7.276;2023-04-03T10:29:46;10.50;50.50
19947;DHT22;10135;50.702;7.276;2023-04-03T10:36:43;10.50;50.40
19947;DHT22;10135;50.702;7.276;2023-04-03T10:39:16;10.60;51.20
19947;DHT22;10135;50.702;7.276;2023-04-03T10:41:54;10.60;49.60
19947;DHT22;10135;50.702;7.276;2023-04-03T10:44:15;10.70;50.40
19947;DHT22;10135;50.702;7.276;2023-04-03T10:46:36;10.70;49.80
19947;DHT22;10135;50.702;7.276;2023-04-03T10:49:05;10.80;50.40
19947;DHT22;10135;50.702;7.276;2023-04-03T10:56:08;10.90;49.60
19947;DHT22;10135;50.702;7.276;2023-04-03T10:58:32;10.90;50.80
19947;DHT22;10135;50.702;7.276;2023-04-03T11:00:42;11.00;50.10
19947;DHT22;10135;50.702;7.276;2023-04-03T11:02:52;11.00;50.70
19947;DHT22;10135;50.702;7.276;2023-04-03T11:05:29;11.10;50.30
19947;DHT22;10135;50.702;7.276;2023-04-03T11:07:42;11.20;49.90
19947;DHT22;10135;50.702;7.276;2023-04-03T11:09:48;11.20;50.30
19947;DHT22;10135;50.702;7.276;2023-04-03T11:11:55;11.30;50.70
19947;DHT22;10135;50.702;7.276;2023-04-03T11:14:18;11.40;50.40
19947;DHT22;10135;50.702;7.276;2023-04-03T11:16:27;11.40;49.90
19947;DHT22;10135;50.702;7.276;2023-04-03T11:18:44;11.50;50.50
19947;DHT22;10135;50.702;7.276;2023-04-03T11:21:04;11.50;49.10
19947;DHT22;10135;50.702;7.276;2023-04-03T11:23:36;11.50;49.30
19947;DHT22;10135;50.702;7.276;2023-04-03T11:25:41;11.50;49.40
19947;DHT22;10135;50.702;7.276;2023-04-03T11:27:45;11.50;50.00
19947;DHT22;10135;50.702;7.276;2023-04-03T11:29:52;11.50;50.00
19947;DHT22;10135;50.702;7.276;2023-04-03T11:34:34;11.50;48.90
19947;DHT22;10135;50.702;7.276;2023-04-03T11:36:48;11.50;49.60
19947;DHT22;10135;50.702;7.276;2023-04-03T11:38:59;11.50;49.10
19947;DHT22;10135;50.702;7.276;2023-04-03T11:41:08;11.50;49.40
19947;DHT22;10135;50.702;7.276;2023-04-03T11:43:23;11.60;49.90
19947;DHT22;10135;50.702;7.276;2023-04-03T11:45:37;11.60;49.00
19947;DHT22;10135;50.702;7.276;2023-04-03T11:48:06;11.60;49.40
19947;DHT22;10135;50.702;7.276;2023-04-03T11:54:46;11.70;49.30
19947;DHT22;10135;50.702;7.276;2023-04-03T11:56:48;11.70;49.50
19947;DHT22;10135;50.702;7.276;2023-04-03T12:01:47;11.80;48.80
19947;DHT22;10135;50.702;7.276;2023-04-03T12:04:06;11.90;48.40
19947;DHT22;10135;50.702;7.276;2023-04-03T12:08:36;12.00;49.30
19947;DHT22;10135;50.702;7.276;2023-04-03T12:13:16;12.00;47.90
19947;DHT22;10135;50.702;7.276;2023-04-03T12:15:44;12.00;48.50
19947;DHT22;10135;50.702;7.276;2023-04-03T12:17:49;12.10;48.40
19947;DHT22;10135;50.702;7.276;2023-04-03T12:19:52;12.10;49.20
19947;DHT22;10135;50.702;7.276;2023-04-03T12:24:04;12.10;48.20
19947;DHT22;10135;50.702;7.276;2023-04-03T12:28:46;12.20;47.20
19947;DHT22;10135;50.702;7.276;2023-04-03T12:30:49;12.20;48.20
19947;DHT22;10135;50.702;7.276;2023-04-03T12:33:31;12.20;48.10
19947;DHT22;10135;50.702;7.276;2023-04-03T12:36:02;12.20;46.60
19947;DHT22;10135;50.702;7.276;2023-04-03T12:41:36;12.10;46.30
19947;DHT22;10135;50.702;7.276;2023-04-03T12:46:22;12.00;47.90
19947;DHT22;10135;50.702;7.276;2023-04-03T12:48:26;12.00;47.20
19947;DHT22;10135;50.702;7.276;2023-04-03T12:50:33;12.00;47.10
19947;DHT22;10135;50.702;7.276;2023-04-03T12:52:51;11.90;47.30
19947;DHT22;10135;50.702;7.276;2023-04-03T12:54:57;11.90;46.40
19947;DHT22;10135;50.702;7.276;2023-04-03T12:57:19;11.90;47.70
19947;DHT22;10135;50.702;7.276;2023-04-03T12:59:27;12.00;46.40
19947;DHT22;10135;50.702;7.276;2023-04-03T13:01:28;12.00;47.70
19947;DHT22;10135;50.702;7.276;2023-04-03T13:03:29;12.00;47.70
19947;DHT22;10135;50.702;7.276;2023-04-03T13:05:31;12.00;47.60
19947;DHT22;10135;50.702;7.276;2023-04-03T13:07:35;12.10;47.50
19947;DHT22;10135;50.702;7.276;2023-04-03T13:09:39;12.10;47.30
19947;DHT22;10135;50.702;7.276;2023-04-03T13:11:42;12.10;47.40
19947;DHT22;10135;50.702;7.276;2023-04-03T13:14:01;12.10;47.40
19947;DHT22;10135;50.702;7.276;2023-04-03T13:16:16;12.20;47.10
19947;DHT22;10135;50.702;7.276;2023-04-03T13:18:35;12.20;47.60
19947;DHT22;10135;50.702;7.276;2023-04-03T13:20:37;12.20;46.80
19947;DHT22;10135;50.702;7.276;2023-04-03T13:23:00;12.30;47.70
19947;DHT22;10135;50.702;7.276;2023-04-03T13:25:07;12.30;46.70
19947;DHT22;10135;50.702;7.276;2023-04-03T13:27:11;12.40;47.00
19947;DHT22;10135;50.702;7.276;2023-04-03T13:29:42;12.40;47.30
19947;DHT22;10135;50.702;7.276;2023-04-03T13:31:43;12.40;46.60
19947;DHT22;10135;50.702;7.276;2023-04-03T13:33:57;12.40;47.20
19947;DHT22;10135;50.702;7.276;2023-04-03T13:36:18;12.40;46.00
19947;DHT22;10135;50.702;7.276;2023-04-03T13:38:24;12.40;46.50
19947;DHT22;10135;50.702;7.276;2023-04-03T13:40:26;12.50;46.80
19947;DHT22;10135;50.702;7.276;2023-04-03T13:42:30;12.40;46.90
19947;DHT22;10135;50.702;7.276;2023-04-03T13:44:36;12.40;47.00
19947;DHT22;10135;50.702;7.276;2023-04-03T13:46:39;12.40;46.70
19947;DHT22;10135;50.702;7.276;2023-04-03T13:48:46;12.40;46.80
19947;DHT22;10135;50.702;7.276;2023-04-03T13:51:04;12.40;46.30
19947;DHT22;10135;50.702;7.276;2023-04-03T13:53:17;12.40;46.20
19947;DHT22;10135;50.702;7.276;2023-04-03T13:57:23;12.50;46.70
19947;DHT22;10135;50.702;7.276;2023-04-03T13:59:35;12.50;47.00
19947;DHT22;10135;50.702;7.276;2023-04-03T14:01:50;12.40;46.10
19947;DHT22;10135;50.702;7.276;2023-04-03T14:04:22;12.50;45.60
19947;DHT22;10135;50.702;7.276;2023-04-03T14:06:26;12.50;45.90
19947;DHT22;10135;50.702;7.276;2023-04-03T14:08:27;12.50;46.70
19947;DHT22;10135;50.702;7.276;2023-04-03T14:10:28;12.50;46.60
19947;DHT22;10135;50.702;7.276;2023-04-03T14:12:36;12.50;46.40
19947;DHT22;10135;50.702;7.276;2023-04-03T14:14:39;12.50;46.30
19947;DHT22;10135;50.702;7.276;2023-04-03T14:16:45;12.50;46.60
19947;DHT22;10135;50.702;7.276;2023-04-03T14:18:52;12.50;46.30
19947;DHT22;10135;50.702;7.276;2023-04-03T14:20:53;12.60;46.70
19947;DHT22;10135;50.702;7.276;2023-04-03T14:22:54;12.60;46.60
19947;DHT22;10135;50.702;7.276;2023-04-03T14:24:55;12.50;46.40
19947;DHT22;10135;50.702;7.276;2023-04-03T14:26:57;12.60;46.50
19947;DHT22;10135;50.702;7.276;2023-04-03T14:28:58;12.60;46.60
19947;DHT22;10135;50.702;7.276;2023-04-03T14:30:58;12.60;46.50
19947;DHT22;10135;50.702;7.276;2023-04-03T14:32:59;12.60;46.40
19947;DHT22;10135;50.702;7.276;2023-04-03T14:35:01;12.60;46.10
19947;DHT22;10135;50.702;7.276;2023-04-03T14:37:02;12.60;46.10
19947;DHT22;10135;50.702;7.276;2023-04-03T14:39:05;12.50;46.00
19947;DHT22;10135;50.702;7.276;2023-04-03T14:41:10;12.50;46.00
19947;DHT22;10135;50.702;7.276;2023-04-03T14:43:13;12.50;46.10
19947;DHT22;10135;50.702;7.276;2023-04-03T14:45:13;12.50;46.10
19947;DHT22;10135;50.702;7.276;2023-04-03T14:47:20;12.50;45.90
19947;DHT22;10135;50.702;7.276;2023-04-03T14:49:28;12.50;45.70
19947;DHT22;10135;50.702;7.276;2023-04-03T14:51:29;12.50;45.50
19947;DHT22;10135;50.702;7.276;2023-04-03T14:53:30;12.40;45.80
19947;DHT22;10135;50.702;7.276;2023-04-03T14:55:32;12.40;45.60
19947;DHT22;10135;50.702;7.276;2023-04-03T14:57:34;12.30;45.60
19947;DHT22;10135;50.702;7.276;2023-04-03T14:59:35;12.30;45.50
19947;DHT22;10135;50.702;7.276;2023-04-03T15:01:35;12.30;45.60
19947;DHT22;10135;50.702;7.276;2023-04-03T15:03:36;12.30;45.60
19947;DHT22;10135;50.702;7.276;2023-04-03T15:05:37;12.20;45.70
19947;DHT22;10135;50.702;7.276;2023-04-03T15:07:40;12.30;45.60
19947;DHT22;10135;50.702;7.276;2023-04-03T15:09:42;12.20;45.50
19947;DHT22;10135;50.702;7.276;2023-04-03T15:11:43;12.20;45.60
19947;DHT22;10135;50.702;7.276;2023-04-03T15:13:43;12.20;45.50
19947;DHT22;10135;50.702;7.276;2023-04-03T15:15:44;12.20;45.50
19947;DHT22;10135;50.702;7.276;2023-04-03T15:17:46;12.20;45.50
19947;DHT22;10135;50.702;7.276;2023-04-03T15:19:50;12.20;45.50
19947;DHT22;10135;50.702;7.276;2023-04-03T15:21:51;12.20;45.50
19947;DHT22;10135;50.702;7.276;2023-04-03T15:23:51;12.20;45.30
19947;DHT22;10135;50.702;7.276;2023-04-03T15:25:53;12.20;45.20
19947;DHT22;10135;50.702;7.276;2023-04-03T15:27:55;12.20;45.10
19947;DHT22;10135;50.702;7.276;2023-04-03T15:29:56;12.20;45.10
19947;DHT22;10135;50.702;7.276;2023-04-03T15:31:57;12.10;45.30
19947;DHT22;10135;50.702;7.276;2023-04-03T15:33:58;12.10;45.90
19947;DHT22;10135;50.702;7.276;2023-04-03T15:35:58;12.10;45.30
19947;DHT22;10135;50.702;7.276;2023-04-03T15:37:59;12.10;45.30
19947;DHT22;10135;50.702;7.276;2023-04-03T15:40:00;12.10;45.20
19947;DHT22;10135;50.702;7.276;2023-04-03T15:42:00;12.10;44.90
19947;DHT22;10135;50.702;7.276;2023-04-03T15:44:06;12.10;45.00
19947;DHT22;10135;50.702;7.276;2023-04-03T15:46:06;12.10;45.10
19947;DHT22;10135;50.702;7.276;2023-04-03T15:48:08;12.10;45.10
19947;DHT22;10135;50.702;7.276;2023-04-03T15:50:10;12.10;45.10
19947;DHT22;10135;50.702;7.276;2023-04-03T15:52:10;12.10;45.10
19947;DHT22;10135;50.702;7.276;2023-04-03T15:54:11;12.00;44.80
19947;DHT22;10135;50.702;7.276;2023-04-03T15:56:12;12.00;44.90
19947;DHT22;10135;50.702;7.276;2023-04-03T15:58:13;12.00;44.90
19947;DHT22;10135;50.702;7.276;2023-04-03T16:00:14;12.00;45.00
19947;DHT22;10135;50.702;7.276;2023-04-03T16:02:15;12.00;44.90
19947;DHT22;10135;50.702;7.276;2023-04-03T16:04:16;12.00;44.90
19947;DHT22;10135;50.702;7.276;2023-04-03T16:06:18;12.00;44.80
19947;DHT22;10135;50.702;7.276;2023-04-03T16:08:19;12.00;44.70
19947;DHT22;10135;50.702;7.276;2023-04-03T16:10:20;12.00;44.70
19947;DHT22;10135;50.702;7.276;2023-04-03T16:12:21;11.90;44.50
19947;DHT22;10135;50.702;7.276;2023-04-03T16:14:22;11.90;44.50
19947;DHT22;10135;50.702;7.276;2023-04-03T16:16:23;11.90;44.50
19947;DHT22;10135;50.702;7.276;2023-04-03T16:18:26;11.80;44.50
19947;DHT22;10135;50.702;7.276;2023-04-03T16:20:28;11.80;44.50
19947;DHT22;10135;50.702;7.276;2023-04-03T16:22:29;11.90;44.50
19947;DHT22;10135;50.702;7.276;2023-04-03T16:24:30;11.80;44.50
19947;DHT22;10135;50.702;7.276;2023-04-03T16:26:32;11.80;44.30
19947;DHT22;10135;50.702;7.276;2023-04-03T16:28:33;11.80;44.20
19947;DHT22;10135;50.702;7.276;2023-04-03T16:30:33;11.80;44.30
19947;DHT22;10135;50.702;7.276;2023-04-03T16:32:35;11.70;44.30
19947;DHT22;10135;50.702;7.276;2023-04-03T16:34:37;11.70;44.20
19947;DHT22;10135;50.702;7.276;2023-04-03T16:36:37;11.70;44.40
19947;DHT22;10135;50.702;7.276;2023-04-03T16:38:38;11.70;44.30
19947;DHT22;10135;50.702;7.276;2023-04-03T16:40:39;11.70;44.30
19947;DHT22;10135;50.702;7.276;2023-04-03T16:42:39;11.70;44.30
19947;DHT22;10135;50.702;7.276;2023-04-03T16:44:40;11.70;44.40
19947;DHT22;10135;50.702;7.276;2023-04-03T16:46:41;11.60;44.20
19947;DHT22;10135;50.702;7.276;2023-04-03T16:48:42;11.60;44.20
19947;DHT22;10135;50.702;7.276;2023-04-03T16:50:46;11.60;44.00
19947;DHT22;10135;50.702;7.276;2023-04-03T16:52:53;11.60;43.70
19947;DHT22;10135;50.702;7.276;2023-04-03T16:54:54;11.60;44.00
19947;DHT22;10135;50.702;7.276;2023-04-03T16:56:55;11.50;44.00
19947;DHT22;10135;50.702;7.276;2023-04-03T16:58:56;11.50;44.00
19947;DHT22;10135;50.702;7.276;2023-04-03T17:00:57;11.50;44.00
19947;DHT22;10135;50.702;7.276;2023-04-03T17:02:57;11.50;44.00
19947;DHT22;10135;50.702;7.276;2023-04-03T17:04:58;11.40;43.80
19947;DHT22;10135;50.702;7.276;2023-04-03T17:06:59;11.40;43.80
19947;DHT22;10135;50.702;7.276;2023-04-03T17:09:06;11.40;43.80
19947;DHT22;10135;50.702;7.276;2023-04-03T17:11:06;11.40;44.00
19947;DHT22;10135;50.702;7.276;2023-04-03T17:13:07;11.30;44.60
19947;DHT22;10135;50.702;7.276;2023-04-03T17:15:09;11.30;43.90
19947;DHT22;10135;50.702;7.276;2023-04-03T17:17:10;11.30;43.80
19947;DHT22;10135;50.702;7.276;2023-04-03T17:19:10;11.30;43.90
19947;DHT22;10135;50.702;7.276;2023-04-03T17:21:12;11.20;43.80
19947;DHT22;10135;50.702;7.276;2023-04-03T17:23:14;11.20;43.80
19947;DHT22;10135;50.702;7.276;2023-04-03T17:25:15;11.20;43.80
19947;DHT22;10135;50.702;7.276;2023-04-03T17:27:16;11.20;43.80
19947;DHT22;10135;50.702;7.276;2023-04-03T17:29:16;11.10;43.80
19947;DHT22;10135;50.702;7.276;2023-04-03T17:31:17;11.10;44.30
19947;DHT22;10135;50.702;7.276;2023-04-03T17:33:18;11.00;43.70
19947;DHT22;10135;50.702;7.276;2023-04-03T17:35:19;11.00;43.70
19947;DHT22;10135;50.702;7.276;2023-04-03T17:37:20;11.00;43.70
19947;DHT22;10135;50.702;7.276;2023-04-03T17:39:20;10.90;43.60
19947;DHT22;10135;50.702;7.276;2023-04-03T17:41:21;10.90;43.70
19947;DHT22;10135;50.702;7.276;2023-04-03T17:43:22;10.80;43.70
19947;DHT22;10135;50.702;7.276;2023-04-03T17:45:23;10.80;43.60
19947;DHT22;10135;50.702;7.276;2023-04-03T17:47:24;10.70;43.70
19947;DHT22;10135;50.702;7.276;2023-04-03T17:49:25;10.70;43.70
19947;DHT22;10135;50.702;7.276;2023-04-03T17:51:26;10.70;43.70
19947;DHT22;10135;50.702;7.276;2023-04-03T17:53:27;10.60;43.60
19947;DHT22;10135;50.702;7.276;2023-04-03T17:55:27;10.60;43.70
19947;DHT22;10135;50.702;7.276;2023-04-03T17:57:28;10.50;43.60
19947;DHT22;10135;50.702;7.276;2023-04-03T17:59:31;10.40;43.70
19947;DHT22;10135;50.702;7.276;2023-04-03T18:01:33;10.40;44.40
19947;DHT22;10135;50.702;7.276;2023-04-03T18:03:35;10.40;43.80
19947;DHT22;10135;50.702;7.276;2023-04-03T18:05:36;10.30;43.70
19947;DHT22;10135;50.702;7.276;2023-04-03T18:07:38;10.20;43.70
19947;DHT22;10135;50.702;7.276;2023-04-03T18:09:39;10.20;43.70
19947;DHT22;10135;50.702;7.276;2023-04-03T18:11:42;10.20;43.70
19947;DHT22;10135;50.702;7.276;2023-04-03T18:13:45;10.10;43.60
19947;DHT22;10135;50.702;7.276;2023-04-03T18:15:46;10.10;43.80
19947;DHT22;10135;50.702;7.276;2023-04-03T18:17:48;10.10;43.80
19947;DHT22;10135;50.702;7.276;2023-04-03T18:19:51;10.00;43.80
19947;DHT22;10135;50.702;7.276;2023-04-03T18:21:55;10.00;43.80
19947;DHT22;10135;50.702;7.276;2023-04-03T18:23:59;9.90;43.70
19947;DHT22;10135;50.702;7.276;2023-04-03T18:26:02;9.90;43.80
19947;DHT22;10135;50.702;7.276;2023-04-03T18:28:04;9.90;43.80
19947;DHT22;10135;50.702;7.276;2023-04-03T18:30:09;9.80;43.80
19947;DHT22;10135;50.702;7.276;2023-04-03T18:32:14;9.80;43.80
19947;DHT22;10135;50.702;7.276;2023-04-03T18:34:17;9.80;43.80
19947;DHT22;10135;50.702;7.276;2023-04-03T18:36:17;9.80;43.80
19947;DHT22;10135;50.702;7.276;2023-04-03T18:38:18;9.70;43.80
19947;DHT22;10135;50.702;7.276;2023-04-03T18:40:19;9.70;43.80
19947;DHT22;10135;50.702;7.276;2023-04-03T18:42:22;9.60;43.80
19947;DHT22;10135;50.702;7.276;2023-04-03T18:44:25;9.60;43.80
19947;DHT22;10135;50.702;7.276;2023-04-03T18:46:27;9.60;43.90
19947;DHT22;10135;50.702;7.276;2023-04-03T18:48:28;9.50;43.90
19947;DHT22;10135;50.702;7.276;2023-04-03T18:50:29;9.50;44.00
19947;DHT22;10135;50.702;7.276;2023-04-03T18:52:30;9.40;43.90
19947;DHT22;10135;50.702;7.276;2023-04-03T18:54:31;9.40;43.90
19947;DHT22;10135;50.702;7.276;2023-04-03T18:56:32;9.40;43.90
19947;DHT22;10135;50.702;7.276;2023-04-03T18:58:32;9.30;43.90
19947;DHT22;10135;50.702;7.276;2023-04-03T19:00:35;9.30;44.00
19947;DHT22;10135;50.702;7.276;2023-04-03T19:02:38;9.30;44.00